Joplin Regional Airport Joplin US
ICAO: KJLN
IATA: JLN
Category: Large
Scheduled Services: Yes

Elevation: 981 ft
TransAlt. 18000 ft.

Airport Communications:
ATIS:120.85
KANSAS CITY CNTR:128.6
CTAF:119.8
GND:121.6
COLUMBIA RDO:122.6
TWR:119.8
UNICOM:122.95

KJLN Zoom In..

If Map Doesn't Load, Click Here

Runways:

(A) RW 05 length 3604 ft width 75 ft
---- / hdg 46

(B) RW 13 length 6501 ft width 150 ft
ILS 110.30 / hdg 134

(C) RW 18 length 6500 ft width 100 ft
ILS 108.90 / hdg 178

(D) RW 23 length 3604 ft width 75 ft
---- / hdg 226

(E) RW 31 length 6501 ft width 150 ft
---- / hdg 314

(F) RW 36 length 6500 ft width 100 ft
---- / hdg 358

Location; KJLN
Day. 23 / Time. 20.53 Zulu
* Altimeter: 29.97
* Temperature: 25° c. 77°f.
* Wind from: 090° Speed 05 kn.
Dewpoint: 16° c.
Visibility: 10 Statute Miles.
Clouds: Clear (automated report).

KJLN 232053Z 09005KT 10SM CLR 25/16 A2997 RMK AO2 SLP141 T02500161 56025


Wind From 090°
Speed 05 kn.

 
 
jpsmedia.com for Web Design worldairports.se 2018   terms of use